Washington, Georgia
Current Conditions -  °F | °C
As of 8:55 PM on Monday 24 Nov 2014 (Local Time) from KIIY Reporting Station
Broken Clouds Broken Clouds  
Wind Chill: 68°   Ceiling: 800
Heat Index: 68°   Visibility: 10mi
Dew Point: 68°   Wind: 6mph
Humidity: 100%   Direction: 180°S
Pressure: 29.93"   Gusts: NA
Location:  33.74°N, 82.74°W
Report Text: KIIY 250155Z AUTO 18005KT 10SM BKN008 20/20 A2993 RMK AO2
Loading
Personal Weather Stations






























Interactive Weather Map New forecast layout! Learn more

10-Day Weather Forecast

Advertisements
Track Severe Weather on mobile